New Hartford, CT

11:34 AM EDT on September 16, 2014 (GMT -0400)
Hartford-brainard | Change Station
CLOSE
Current Station
Airport
Location: Hartford,
Elevation: 16 ft
Nearby Weather Stations

Elev 16 ft 41.74 °N, 72.65 °W | Updated 32 minutes ago

Overcast
Overcast
56 °F
Feels Like 56 °F
N
10
Wind Variable Wind from SE

Today
High -- | Low -- °F
--% Chance of Precip.
Yesterday
High -- | Low -- °F
Precip. -- in
6:33 AM 6:59 PM
Last Quarter, 44% visible
Pressure 30.01 in
Visibility 10.0 miles
Clouds Few 500 ft
Few 6000 ft
Overcast 8000 ft
Dew Point 53 °F
Humidity 90%
Rainfall 0.07 in
Snow Depth Not available.
UV 2 out of 12
Pollen 1.40 out of 12
Ozone Good
PM2.5 Good
Flu Activity Not available.
SPECI KHFD 161502Z 14009KT 10SM FEW005 FEW060 OVC080 13/12 A3001 RMK AO2 RAE1458 P0000 T01330117

More Conditions Fewer Conditions

Pressure 30.01 in
Visibility 10.0 miles
Clouds Few 500 ft
Few 6000 ft
Overcast 8000 ft
Dew Point 53 °F
Humidity 90%
Rainfall 0.07 in
Snow Depth Not available.
UV 2 out of 12
Pollen 1.40 out of 12
Ozone Good
PM2.5 Good
Flu Activity Not available.
SPECI KHFD 161502Z 14009KT 10SM FEW005 FEW060 OVC080 13/12 A3001 RMK AO2 RAE1458 P0000 T01330117

More Conditions Fewer Conditions

10-Day Weather Forecast

Almanac

Astronomy

Sep. 16, 2014 Rise Set
Actual Time 6:33 AM EDT 6:59 PM EDT
Civil Twilight 6:05 AM EDT 7:27 PM EDT
Nautical Twilight 5:32 AM EDT 8:00 PM EDT
Astronomical Twilight 4:58 AM EDT 8:34 PM EDT
Moon No Moon Rise 2:25 PM EDT
Length of Visible Light 13h 22m
Length of Day
12h 26m
Tomorrow will be 2m 46s shorter.
Last Quarter, 44% of the Moon is Illuminated
Today
Last Quarter
Sep 24
New
Oct 1
First Quarter
Oct 8
Full
Oct 15
Last Quarter

Today's Extremes

State Highs State Lows

Community

WunderPhotos

Upload Photos

1,753,810 photos uploaded!

Nearby

Air Quality

  Air Quality AQ Index Pollutant
Yesterday Good
OZONE
Yesterday Good
PM10
Current Good
PM2.5
Current Good
OZONE
Tuesday Good
OZONE
Tuesday Good
PM2.5

Snow Depth

Station Depth Elevation
No new snow has been reported.

Earthquake Activity

City Distance Mag. Time & Date
No recent earthquake activity has been reported nearby.
Minimum magnitude displayed is 2.5.

Coastal Water Temperatures

Place Temperature
No Stations Reporting

Nearby Weather Stations